Time;durP1;ratioP1;P1;durP2;ratioP2;P2;SDS_P1;SDS_P2;PMS_P1;PMS_P2;Temp;Humidity;BMP_temperature;BMP_pressure;BME280_temperature;BME280_humidity;BME280_pressure;Samples;Min_cycle;Max_cycle;Signal;HPM_P1;HPM_P2
2021/12/03 00:00:25;;;;;;;6.90;5.53;;;;;;;-0.47;100.00;93768.28;5032601;28;20179;-73
2021/12/03 00:02:50;;;;;;;6.07;5.30;;;;;;;-0.38;100.00;93765.81;5030871;28;20203;-73
2021/12/03 00:05:16;;;;;;;6.20;5.03;;;;;;;-0.54;100.00;93759.63;5015791;28;20184;-73
2021/12/03 00:07:42;;;;;;;8.17;5.63;;;;;;;-0.27;100.00;93782.44;5015163;28;20639;-71
2021/12/03 00:10:13;;;;;;;5.90;5.30;;;;;;;-0.28;100.00;93772.88;5014881;28;20275;-73
2021/12/03 00:12:40;;;;;;;6.70;5.03;;;;;;;-0.32;100.00;93772.19;5026511;28;20211;-73
2021/12/03 00:15:08;;;;;;;6.73;5.80;;;;;;;-0.28;100.00;93778.25;5032925;28;20302;-73
2021/12/03 00:17:34;;;;;;;6.53;5.67;;;;;;;-0.38;100.00;93768.50;5013776;28;20271;-73
2021/12/03 00:19:59;;;;;;;6.40;5.53;;;;;;;-0.20;100.00;93776.16;5014949;28;20266;-73
2021/12/03 00:22:25;;;;;;;8.07;6.33;;;;;;;-0.14;100.00;93788.66;5017737;28;20579;-73
2021/12/03 00:24:51;;;;;;;7.67;6.87;;;;;;;0.00;100.00;93809.81;5012709;28;20254;-73
2021/12/03 00:27:17;;;;;;;9.23;6.07;;;;;;;-0.07;100.00;93809.97;5028436;28;20595;-73
2021/12/03 00:29:43;;;;;;;8.03;5.90;;;;;;;-0.04;100.00;93806.47;5014757;28;20677;-73
2021/12/03 00:32:09;;;;;;;6.57;5.93;;;;;;;0.11;100.00;93814.97;5030944;28;20689;-73
2021/12/03 00:34:35;;;;;;;11.23;7.50;;;;;;;0.25;100.00;93811.22;5032673;28;20575;-73
2021/12/03 00:37:00;;;;;;;7.37;6.37;;;;;;;0.02;100.00;93820.13;5024286;28;20556;-73
2021/12/03 00:39:27;;;;;;;7.67;6.87;;;;;;;0.13;100.00;93831.41;5020077;28;20537;-73
2021/12/03 00:42:01;;;;;;;10.10;7.77;;;;;;;0.37;100.00;93846.22;5031868;28;20286;-73
2021/12/03 00:44:29;;;;;;;8.00;6.63;;;;;;;0.13;100.00;93849.44;4997762;28;20194;-73
2021/12/03 00:46:56;;;;;;;9.30;6.43;;;;;;;-0.02;100.00;93859.72;5031071;28;20214;-73
2021/12/03 00:49:21;;;;;;;10.03;6.57;;;;;;;0.02;100.00;93863.06;5031254;28;20222;-72
2021/12/03 00:51:47;;;;;;;7.27;6.57;;;;;;;-0.02;100.00;93865.84;5004993;28;20239;-73
2021/12/03 00:54:13;;;;;;;7.23;6.43;;;;;;;-0.14;100.00;93865.72;5012718;28;20195;-73
2021/12/03 00:56:40;;;;;;;8.07;6.37;;;;;;;-0.22;100.00;93878.50;5029698;28;20265;-72
2021/12/03 00:59:05;;;;;;;7.23;6.13;;;;;;;-0.29;100.00;93881.31;5031610;28;20233;-73
2021/12/03 01:01:31;;;;;;;7.23;6.20;;;;;;;-0.26;100.00;93880.53;5027267;28;20235;-73
2021/12/03 01:03:57;;;;;;;8.97;5.93;;;;;;;-0.32;100.00;93902.84;5022637;28;20209;-73
2021/12/03 01:06:23;;;;;;;8.90;6.03;;;;;;;-0.20;100.00;93897.63;5013577;28;20613;-73
2021/12/03 01:08:48;;;;;;;8.97;6.07;;;;;;;0.00;100.00;93884.22;5031439;28;20187;-73
2021/12/03 01:11:14;;;;;;;8.90;6.10;;;;;;;-0.02;100.00;93897.31;5024610;28;20219;-73
2021/12/03 01:13:42;;;;;;;11.43;6.27;;;;;;;-0.09;100.00;93892.84;5031975;28;20555;-73
2021/12/03 01:16:09;;;;;;;10.40;7.10;;;;;;;0.01;100.00;93901.84;5013841;28;20179;-72
2021/12/03 01:18:36;;;;;;;13.50;6.50;;;;;;;-0.15;100.00;93910.56;4995806;28;20193;-71
2021/12/03 01:21:04;;;;;;;11.23;7.20;;;;;;;-0.10;100.00;93930.78;5014785;28;20244;-71
2021/12/03 01:23:30;;;;;;;9.50;6.70;;;;;;;-0.30;100.00;93941.53;5018336;28;20188;-72
2021/12/03 01:25:57;;;;;;;10.73;6.80;;;;;;;-0.33;100.00;93933.53;5024264;28;20203;-71
2021/12/03 01:28:23;;;;;;;7.83;5.97;;;;;;;-0.38;100.00;93942.06;5011135;28;20188;-71
2021/12/03 01:30:48;;;;;;;8.67;6.30;;;;;;;-0.26;100.00;93946.81;5013686;28;20218;-72
2021/12/03 01:33:14;;;;;;;9.17;6.30;;;;;;;-0.23;100.00;93960.16;5024448;28;20195;-73
2021/12/03 01:35:40;;;;;;;7.50;6.30;;;;;;;-0.09;100.00;93965.28;5014474;28;20282;-72
2021/12/03 01:38:07;;;;;;;10.57;6.67;;;;;;;-0.19;100.00;93957.44;5014480;28;20270;-72
2021/12/03 01:40:35;;;;;;;7.67;6.20;;;;;;;-0.16;100.00;93964.66;5022224;28;20199;-72
2021/12/03 01:43:03;;;;;;;8.00;6.77;;;;;;;-0.24;100.00;93966.69;4997914;28;20286;-72
2021/12/03 01:45:32;;;;;;;8.03;6.23;;;;;;;-0.26;100.00;93971.72;5030351;28;20209;-72
2021/12/03 01:47:59;;;;;;;7.70;5.43;;;;;;;-0.43;100.00;93969.34;4992817;28;20196;-73
2021/12/03 01:50:38;;;;;;;8.43;6.33;;;;;;;-0.35;100.00;93963.44;5018713;28;20218;-72
2021/12/03 01:53:04;;;;;;;6.53;5.70;;;;;;;-0.35;100.00;93965.38;4997963;28;20270;-72
2021/12/03 01:55:31;;;;;;;8.70;6.20;;;;;;;-0.22;100.00;93966.31;5005454;28;20347;-73
2021/12/03 01:57:56;;;;;;;10.30;6.57;;;;;;;-0.33;100.00;93971.84;5031275;28;20215;-72
2021/12/03 02:00:24;;;;;;;6.13;5.27;;;;;;;-0.48;100.00;93970.59;5038748;28;20505;-71
2021/12/03 02:02:50;;;;;;;8.43;5.93;;;;;;;-0.31;100.00;93969.53;5041391;28;20211;-73
2021/12/03 02:05:16;;;;;;;7.00;5.43;;;;;;;-0.38;100.00;93966.97;5023488;28;20206;-72
2021/12/03 02:07:44;;;;;;;7.87;5.83;;;;;;;-0.34;100.00;93973.00;5022804;28;20246;-72
2021/12/03 02:10:11;;;;;;;8.17;6.03;;;;;;;-0.52;100.00;93983.28;5044564;28;20218;-72
2021/12/03 02:12:37;;;;;;;10.47;6.40;;;;;;;-0.34;100.00;93981.03;5037388;28;20238;-72
2021/12/03 02:15:03;;;;;;;8.20;6.63;;;;;;;-0.26;100.00;93970.97;5043919;28;20230;-72
2021/12/03 02:17:29;;;;;;;8.43;6.70;;;;;;;-0.25;100.00;93972.47;5012794;28;20206;-71
2021/12/03 02:19:55;;;;;;;6.97;5.80;;;;;;;-0.24;100.00;93964.00;5010149;28;20183;-72
2021/12/03 02:22:21;;;;;;;7.93;6.50;;;;;;;-0.13;100.00;93972.63;4993461;28;20212;-72
2021/12/03 02:24:47;;;;;;;7.33;5.37;;;;;;;-0.23;100.00;93968.22;5002111;28;20233;-72
2021/12/03 02:27:12;;;;;;;9.77;6.07;;;;;;;-0.30;100.00;93983.66;5012700;28;20270;-72
2021/12/03 02:29:38;;;;;;;5.80;5.17;;;;;;;-0.13;100.00;93969.19;5030799;28;20305;-72
2021/12/03 02:32:04;;;;;;;6.20;5.30;;;;;;;-0.19;100.00;93974.25;5030165;28;20261;-72
2021/12/03 02:34:31;;;;;;;6.40;5.20;;;;;;;-0.26;100.00;93973.66;5015077;28;20199;-72
2021/12/03 02:36:56;;;;;;;6.40;5.33;;;;;;;-0.26;100.00;93974.41;5021821;28;20496;-73
2021/12/03 02:39:22;;;;;;;6.50;4.90;;;;;;;-0.25;100.00;93989.31;5030435;28;20195;-72
2021/12/03 02:41:48;;;;;;;5.77;4.80;;;;;;;-0.34;100.00;93996.41;5030232;28;20518;-71
2021/12/03 02:44:13;;;;;;;5.70;4.63;;;;;;;-0.33;100.00;93979.13;5030036;28;20202;-72
2021/12/03 02:46:39;;;;;;;6.40;4.60;;;;;;;-0.33;100.00;93998.66;5012616;28;20210;-71
2021/12/03 02:49:06;;;;;;;5.40;3.97;;;;;;;-0.38;100.00;94003.75;5031441;28;20210;-72
2021/12/03 02:51:32;;;;;;;6.90;4.40;;;;;;;-0.35;100.00;94005.59;5046367;28;20223;-72
2021/12/03 02:53:58;;;;;;;5.83;4.70;;;;;;;-0.41;100.00;94005.31;5015367;28;20210;-72
2021/12/03 02:56:24;;;;;;;7.43;4.87;;;;;;;-0.34;100.00;93994.44;5017605;28;20206;-72
2021/12/03 02:58:50;;;;;;;6.33;4.90;;;;;;;-0.15;100.00;94012.53;5037926;28;20197;-71
2021/12/03 03:01:16;;;;;;;7.60;4.37;;;;;;;-0.27;100.00;94009.66;5033329;28;20280;-72
2021/12/03 03:03:41;;;;;;;5.43;4.40;;;;;;;-0.38;100.00;94012.56;5016621;28;20203;-71
2021/12/03 03:06:08;;;;;;;6.13;4.37;;;;;;;-0.39;100.00;94010.28;5034212;28;20607;-71
2021/12/03 03:08:35;;;;;;;6.47;4.63;;;;;;;-0.41;100.00;94018.72;5033546;28;20282;-73
2021/12/03 03:11:03;;;;;;;4.70;4.13;;;;;;;-0.44;100.00;94013.44;5031863;28;20716;-72
2021/12/03 03:13:29;;;;;;;5.80;4.57;;;;;;;-0.34;100.00;94023.22;5019101;28;20282;-72
2021/12/03 03:15:55;;;;;;;5.90;4.50;;;;;;;-0.29;100.00;94034.22;5031588;28;20541;-72
2021/12/03 03:18:24;;;;;;;5.77;3.67;;;;;;;-0.47;100.00;94033.00;5015852;28;20190;-72
2021/12/03 03:20:51;;;;;;;5.83;4.40;;;;;;;-0.53;100.00;94038.09;5012092;28;20284;-72
2021/12/03 03:23:18;;;;;;;5.93;3.97;;;;;;;-0.51;100.00;94037.69;5035591;28;20210;-72
2021/12/03 03:25:46;;;;;;;4.90;4.10;;;;;;;-0.50;100.00;94039.19;5007721;28;20226;-72
2021/12/03 03:28:12;;;;;;;7.77;4.30;;;;;;;-0.42;100.00;94041.34;5012302;28;20218;-72
2021/12/03 03:30:41;;;;;;;4.27;3.83;;;;;;;-0.47;100.00;94044.50;5018302;28;20287;-72
2021/12/03 03:33:07;;;;;;;5.67;4.53;;;;;;;-0.42;100.00;94041.34;5027490;28;20254;-71
2021/12/03 03:35:33;;;;;;;4.93;3.83;;;;;;;-0.38;100.00;94049.34;5016195;28;20195;-72
2021/12/03 03:38:00;;;;;;;6.77;4.07;;;;;;;-0.36;100.00;94053.13;5032654;28;20347;-72
2021/12/03 03:40:26;;;;;;;5.13;4.33;;;;;;;-0.29;100.00;94049.56;5032780;28;20210;-72
2021/12/03 03:42:52;;;;;;;6.60;4.83;;;;;;;-0.28;100.00;94049.16;5033339;28;20265;-72
2021/12/03 03:45:21;;;;;;;5.13;4.47;;;;;;;-0.25;100.00;94059.06;5033620;28;20563;-71
2021/12/03 03:47:47;;;;;;;4.43;4.03;;;;;;;-0.20;100.00;94066.66;5014827;28;20202;-72
2021/12/03 03:50:15;;;;;;;4.80;4.30;;;;;;;-0.30;100.00;94062.22;5008777;28;20218;-73
2021/12/03 03:52:42;;;;;;;6.33;4.27;;;;;;;-0.28;100.00;94061.81;5033158;28;20211;-72
2021/12/03 03:55:09;;;;;;;5.13;4.50;;;;;;;-0.51;100.00;94059.88;4998693;28;20270;-72
2021/12/03 03:57:36;;;;;;;4.67;4.27;;;;;;;-0.37;100.00;94061.56;5006849;28;20214;-71
2021/12/03 04:00:05;;;;;;;5.50;4.53;;;;;;;-0.40;100.00;94073.88;5031759;28;20270;-73
2021/12/03 04:02:37;;;;;;;7.40;4.30;;;;;;;-0.35;100.00;94078.00;5023759;28;20214;-72
2021/12/03 04:05:04;;;;;;;5.17;4.53;;;;;;;-0.39;100.00;94069.28;5018571;28;20274;-72
2021/12/03 04:07:29;;;;;;;5.17;4.23;;;;;;;-0.46;100.00;94080.13;5026145;28;20203;-72
2021/12/03 04:09:55;;;;;;;4.90;4.40;;;;;;;-0.34;100.00;94077.59;5031862;28;20622;-71
2021/12/03 04:12:21;;;;;;;4.83;4.33;;;;;;;-0.52;100.00;94066.41;5013961;28;20223;-71
2021/12/03 04:14:47;;;;;;;8.07;4.40;;;;;;;-0.41;100.00;94076.97;5031210;28;20660;-72
2021/12/03 04:17:12;;;;;;;5.77;4.30;;;;;;;-0.49;100.00;94073.63;5014829;28;20571;-72
2021/12/03 04:19:38;;;;;;;4.53;4.00;;;;;;;-0.51;100.00;94084.00;5014851;28;20240;-72
2021/12/03 04:22:05;;;;;;;7.57;5.23;;;;;;;-0.25;100.00;94080.53;5033130;28;20314;-72
2021/12/03 04:24:30;;;;;;;5.97;4.33;;;;;;;-0.53;100.00;94081.00;5023768;28;20687;-73
2021/12/03 04:26:56;;;;;;;5.70;4.60;;;;;;;-0.58;100.00;94084.13;5012140;28;20238;-72
2021/12/03 04:29:22;;;;;;;5.43;4.87;;;;;;;-0.69;100.00;94088.88;4997693;28;20246;-72
2021/12/03 04:31:47;;;;;;;5.77;5.07;;;;;;;-0.62;100.00;94091.47;5029993;28;20222;-72
2021/12/03 04:34:13;;;;;;;4.77;4.30;;;;;;;-0.71;100.00;94096.56;4995440;28;20584;-72
2021/12/03 04:36:39;;;;;;;6.70;5.10;;;;;;;-0.76;100.00;94096.25;5018686;28;20270;-73
2021/12/03 04:39:05;;;;;;;5.10;4.60;;;;;;;-0.90;100.00;94085.75;5032539;28;20194;-72
2021/12/03 04:41:30;;;;;;;5.13;4.63;;;;;;;-0.79;100.00;94091.69;5013098;28;20533;-72
2021/12/03 04:43:56;;;;;;;5.53;4.70;;;;;;;-0.90;100.00;94099.88;5022196;28;20190;-72
2021/12/03 04:46:22;;;;;;;6.63;4.80;;;;;;;-0.80;100.00;94099.00;5032965;28;20196;-72
2021/12/03 04:48:49;;;;;;;6.43;5.33;;;;;;;-0.80;100.00;94099.00;5034931;28;20187;-72
2021/12/03 04:51:15;;;;;;;7.87;4.23;;;;;;;-0.79;100.00;94095.16;5041305;28;20229;-73
2021/12/03 04:53:41;;;;;;;8.03;4.37;;;;;;;-0.88;100.00;94096.81;5040239;28;20187;-72
2021/12/03 04:56:07;;;;;;;6.63;5.13;;;;;;;-0.93;100.00;94089.22;5030184;28;20210;-73
2021/12/03 04:58:32;;;;;;;5.90;5.30;;;;;;;-0.88;100.00;94097.56;5040603;28;20205;-72
2021/12/03 05:00:59;;;;;;;5.67;5.07;;;;;;;-0.97;100.00;94113.41;5037406;28;20191;-72
2021/12/03 05:03:27;;;;;;;7.13;5.47;;;;;;;-0.95;100.00;94107.63;5045251;28;20199;-72
2021/12/03 05:05:58;;;;;;;5.87;5.00;;;;;;;-0.97;100.00;94109.94;5049998;28;20195;-73
2021/12/03 05:08:27;;;;;;;6.30;5.07;;;;;;;-0.85;100.00;94118.22;5034313;28;20206;-73
2021/12/03 05:10:54;;;;;;;6.83;4.70;;;;;;;-0.86;100.00;94132.75;5023096;28;20222;-72
2021/12/03 05:13:26;;;;;;;7.40;4.90;;;;;;;-0.79;100.00;94132.66;5013255;28;20245;-72
2021/12/03 05:15:52;;;;;;;8.83;5.30;;;;;;;-0.73;100.00;94147.13;5021881;28;20198;-73
2021/12/03 05:18:20;;;;;;;8.37;5.00;;;;;;;-0.69;100.00;94137.13;5030949;28;20195;-72
2021/12/03 05:20:48;;;;;;;5.10;4.60;;;;;;;-0.82;100.00;94141.53;5031312;28;20195;-71
2021/12/03 05:23:17;;;;;;;6.87;5.13;;;;;;;-0.92;100.00;94165.78;5010426;28;20199;-71
2021/12/03 05:25:43;;;;;;;5.83;4.73;;;;;;;-0.69;100.00;94160.50;5031958;28;20234;-72
2021/12/03 05:28:10;;;;;;;7.80;5.17;;;;;;;-0.68;100.00;94159.34;5031703;28;20365;-71
2021/12/03 05:30:37;;;;;;;7.53;4.90;;;;;;;-0.75;100.00;94152.16;5044844;28;20203;-71
2021/12/03 05:33:04;;;;;;;5.77;4.63;;;;;;;-0.72;100.00;94147.91;5009551;28;20223;-71
2021/12/03 05:35:31;;;;;;;7.30;5.43;;;;;;;-0.72;100.00;94169.34;5011953;28;20191;-72
2021/12/03 05:37:57;;;;;;;7.57;5.80;;;;;;;-0.64;100.00;94154.66;5011654;28;20187;-72
2021/12/03 05:40:22;;;;;;;6.83;5.33;;;;;;;-0.69;100.00;94161.25;5013029;28;20208;-71
2021/12/03 05:42:49;;;;;;;7.10;5.40;;;;;;;-0.56;100.00;94169.53;5012517;28;20315;-72
2021/12/03 05:45:19;;;;;;;5.70;5.10;;;;;;;-0.62;100.00;94171.88;5013696;28;20202;-72
2021/12/03 05:47:45;;;;;;;5.70;4.70;;;;;;;-0.54;100.00;94175.97;5023148;28;20191;-72
2021/12/03 05:50:13;;;;;;;6.10;5.30;;;;;;;-0.59;100.00;94173.75;5024668;28;20579;-72
2021/12/03 05:52:39;;;;;;;5.60;5.10;;;;;;;-0.71;100.00;94186.97;5010027;28;20215;-71
2021/12/03 05:55:07;;;;;;;7.40;5.03;;;;;;;-0.58;100.00;94190.63;5029694;28;20282;-72
2021/12/03 05:57:32;;;;;;;6.43;5.37;;;;;;;-0.43;100.00;94187.34;5011599;28;20198;-72
2021/12/03 05:59:58;;;;;;;7.13;5.70;;;;;;;-0.38;100.00;94200.28;5013299;28;20202;-72
2021/12/03 06:02:24;;;;;;;7.23;5.53;;;;;;;-0.45;100.00;94213.78;5028652;28;20331;-72
2021/12/03 06:04:50;;;;;;;10.60;5.60;;;;;;;-0.66;100.00;94211.38;5030000;28;20201;-71
2021/12/03 06:07:15;;;;;;;10.50;6.17;;;;;;;-0.52;100.00;94215.81;5031695;28;20183;-71
2021/12/03 06:09:42;;;;;;;7.80;5.20;;;;;;;-0.66;100.00;94218.69;5013231;28;20623;-72
2021/12/03 06:12:09;;;;;;;8.63;6.47;;;;;;;-0.59;100.00;94234.66;5025038;28;20261;-72
2021/12/03 06:14:35;;;;;;;7.07;6.00;;;;;;;-0.47;100.00;94232.22;5026316;28;20196;-72
2021/12/03 06:17:01;;;;;;;6.70;5.80;;;;;;;-0.50;100.00;94238.38;5025239;28;20604;-72
2021/12/03 06:19:26;;;;;;;6.47;5.53;;;;;;;-0.59;100.00;94237.34;5031603;28;20195;-72
2021/12/03 06:21:52;;;;;;;8.20;6.23;;;;;;;-0.56;100.00;94239.25;5026162;28;20222;-72
2021/12/03 06:24:18;;;;;;;7.27;5.83;;;;;;;-0.44;100.00;94244.06;5000501;28;20214;-72
2021/12/03 06:26:44;;;;;;;7.40;5.50;;;;;;;-0.57;100.00;94243.06;5000701;28;20283;-72
2021/12/03 06:29:11;;;;;;;8.13;6.07;;;;;;;-0.64;100.00;94235.88;5034909;28;20265;-72
2021/12/03 06:31:36;;;;;;;6.47;5.57;;;;;;;-0.58;100.00;94247.69;5030284;28;20303;-72
2021/12/03 06:34:03;;;;;;;7.60;5.73;;;;;;;-0.48;100.00;94246.03;5015302;28;20601;-72
2021/12/03 06:36:29;;;;;;;7.47;6.00;;;;;;;-0.40;100.00;94258.94;4998141;28;20190;-72
2021/12/03 06:38:56;;;;;;;6.67;5.60;;;;;;;-0.56;100.00;94258.75;5019808;28;20574;-73
2021/12/03 06:41:21;;;;;;;7.40;5.33;;;;;;;-0.52;100.00;94256.78;5002944;28;20219;-73
2021/12/03 06:43:47;;;;;;;6.37;5.57;;;;;;;-0.57;100.00;94254.56;5022565;28;20556;-72
2021/12/03 06:46:12;;;;;;;6.50;5.43;;;;;;;-0.59;100.00;94259.56;5033895;28;20500;-73
2021/12/03 06:48:38;;;;;;;8.87;5.23;;;;;;;-0.62;100.00;94259.59;5015988;28;20809;-73
2021/12/03 06:51:04;;;;;;;8.73;5.13;;;;;;;-0.51;100.00;94262.94;5022515;28;20219;-73
2021/12/03 06:53:42;;;;;;;6.83;5.40;;;;;;;-0.72;100.00;94269.28;5014533;28;20605;-73
2021/12/03 06:56:11;;;;;;;9.97;5.17;;;;;;;-0.55;100.00;94264.88;5030488;28;20245;-73
2021/12/03 06:58:36;;;;;;;6.90;5.60;;;;;;;-0.66;100.00;94274.97;5024932;28;20198;-72
2021/12/03 07:01:02;;;;;;;7.07;5.90;;;;;;;-0.84;100.00;94283.22;5034035;28;20191;-72
2021/12/03 07:03:28;;;;;;;6.90;5.43;;;;;;;-0.70;100.00;94293.78;5032777;28;20223;-73
2021/12/03 07:05:54;;;;;;;8.00;6.10;;;;;;;-0.49;100.00;94288.16;5016767;28;20563;-72
2021/12/03 07:08:19;;;;;;;9.17;5.87;;;;;;;-0.45;100.00;94290.81;5016162;28;20598;-72
2021/12/03 07:10:45;;;;;;;7.40;5.57;;;;;;;-0.28;100.00;94285.22;5015807;28;20298;-72
2021/12/03 07:13:11;;;;;;;11.23;5.33;;;;;;;-0.32;100.00;94284.50;5033886;28;20559;-72
2021/12/03 07:15:37;;;;;;;8.60;6.30;;;;;;;-0.34;100.00;94292.19;5034152;28;20553;-72
2021/12/03 07:18:03;;;;;;;7.63;6.17;;;;;;;-0.36;100.00;94301.81;5032350;28;20588;-72
2021/12/03 07:20:28;;;;;;;9.77;6.63;;;;;;;-0.50;100.00;94296.63;5016591;28;20578;-72
2021/12/03 07:22:55;;;;;;;11.73;6.60;;;;;;;-0.49;100.00;94316.88;5015433;28;20525;-72
2021/12/03 07:25:22;;;;;;;7.43;6.27;;;;;;;-0.46;100.00;94318.78;5034337;28;20220;-73
2021/12/03 07:27:48;;;;;;;9.97;7.33;;;;;;;-0.59;100.00;94321.22;5014629;28;20195;-73
2021/12/03 07:30:16;;;;;;;7.73;6.53;;;;;;;-0.53;100.00;94324.22;5033648;28;20222;-72
2021/12/03 07:32:42;;;;;;;7.97;6.27;;;;;;;-0.61;100.00;94336.22;4982116;28;20222;-72
2021/12/03 07:35:09;;;;;;;7.30;5.77;;;;;;;-0.57;100.00;94335.00;5034475;28;20197;-70
2021/12/03 07:37:35;;;;;;;6.40;5.80;;;;;;;-0.57;100.00;94334.22;5016206;28;20207;-71
2021/12/03 07:40:05;;;;;;;7.80;5.87;;;;;;;-0.63;100.00;94333.91;5037401;28;20222;-71
2021/12/03 07:42:32;;;;;;;7.93;5.90;;;;;;;-0.75;100.00;94325.63;5043146;28;20242;-72
2021/12/03 07:44:58;;;;;;;8.30;6.37;;;;;;;-0.67;100.00;94332.44;5044353;28;20195;-71
2021/12/03 07:47:24;;;;;;;8.47;6.40;;;;;;;-0.81;100.00;94337.91;5028778;28;20305;-72
2021/12/03 07:49:50;;;;;;;9.13;5.97;;;;;;;-0.65;100.00;94341.59;5042419;28;22113;-71
2021/12/03 07:52:20;;;;;;;8.07;6.10;;;;;;;-0.35;100.00;94344.31;5044941;28;20215;-72
2021/12/03 07:54:47;;;;;;;7.70;6.03;;;;;;;-0.40;100.00;94349.38;5038270;28;20199;-72
2021/12/03 07:57:13;;;;;;;10.30;6.17;;;;;;;-0.34;100.00;94348.53;5038510;28;20217;-72
2021/12/03 07:59:39;;;;;;;8.03;5.77;;;;;;;-0.15;100.00;94347.91;5033213;28;20222;-71
2021/12/03 08:02:05;;;;;;;8.00;6.17;;;;;;;-0.21;100.00;94341.47;5014782;28;20286;-71
2021/12/03 08:04:31;;;;;;;7.83;6.03;;;;;;;-0.11;100.00;94345.97;5030016;28;20278;-71
2021/12/03 08:06:56;;;;;;;5.87;5.27;;;;;;;-0.36;100.00;94350.09;5033594;28;20223;-72
2021/12/03 08:09:23;;;;;;;6.73;5.60;;;;;;;-0.20;100.00;94356.41;5015165;28;20191;-71
2021/12/03 08:11:49;;;;;;;5.70;5.13;;;;;;;-0.20;100.00;94359.09;5014214;28;20238;-71
2021/12/03 08:14:15;;;;;;;6.87;5.83;;;;;;;-0.03;100.00;94355.44;5014984;28;20199;-72
2021/12/03 08:16:42;;;;;;;6.30;5.53;;;;;;;0.03;100.00;94369.91;5027143;28;20191;-72
2021/12/03 08:19:08;;;;;;;6.40;5.57;;;;;;;0.26;100.00;94365.78;5031896;28;20252;-72
2021/12/03 08:21:33;;;;;;;6.77;5.53;;;;;;;0.10;100.00;94357.59;5012017;28;20222;-72
2021/12/03 08:24:00;;;;;;;6.83;5.97;;;;;;;0.32;100.00;94364.19;5021832;28;20200;-72
2021/12/03 08:26:26;;;;;;;8.93;7.03;;;;;;;0.48;100.00;94365.09;5014186;28;20195;-72
2021/12/03 08:28:52;;;;;;;9.60;6.77;;;;;;;0.31;100.00;94363.41;5010538;28;20205;-73
2021/12/03 08:31:18;;;;;;;8.87;5.90;;;;;;;0.35;100.00;94374.88;5012507;28;20284;-73
2021/12/03 08:33:45;;;;;;;8.30;6.80;;;;;;;0.53;100.00;94380.75;5032116;28;20225;-72
2021/12/03 08:36:11;;;;;;;10.17;7.33;;;;;;;0.35;100.00;94372.19;5013703;28;20183;-72
2021/12/03 08:38:37;;;;;;;7.77;6.60;;;;;;;0.40;100.00;94382.50;5012682;28;20408;-72
2021/12/03 08:41:04;;;;;;;8.07;6.73;;;;;;;0.18;100.00;94383.94;5008406;28;20732;-72
2021/12/03 08:43:30;;;;;;;7.70;6.40;;;;;;;0.10;100.00;94387.09;5014321;28;20198;-72
2021/12/03 08:45:57;;;;;;;8.33;6.00;;;;;;;0.46;100.00;94391.59;5028217;28;20186;-73
2021/12/03 08:48:24;;;;;;;7.20;5.90;;;;;;;0.82;100.00;94403.38;5031161;28;20191;-72
2021/12/03 08:56:00;;;;;;;7.23;5.20;;;;;;;1.24;100.00;94410.75;5031942;28;20190;-72
2021/12/03 08:58:27;;;;;;;7.17;5.40;;;;;;;1.18;100.00;94398.97;5032040;28;20321;-72
2021/12/03 09:00:54;;;;;;;6.80;5.40;;;;;;;0.99;100.00;94404.25;5028458;28;20266;-71
2021/12/03 09:03:19;;;;;;;7.40;5.53;;;;;;;1.14;100.00;94411.69;5021582;28;20187;-72
2021/12/03 09:05:46;;;;;;;7.27;5.13;;;;;;;0.92;100.00;94412.44;5029440;28;20195;-72
2021/12/03 09:08:12;;;;;;;6.03;4.73;;;;;;;0.92;100.00;94410.50;5031671;28;20684;-72
2021/12/03 09:10:39;;;;;;;5.47;4.57;;;;;;;0.73;100.00;94415.81;5025925;28;20219;-72
2021/12/03 09:13:05;;;;;;;4.53;4.10;;;;;;;0.23;100.00;94407.66;5030264;28;20218;-72
2021/12/03 09:15:46;;;;;;;6.17;5.17;;;;;;;0.54;100.00;94390.34;5005398;28;20233;-72
2021/12/03 09:23:15;;;;;;;5.87;4.40;;;;;;;0.43;100.00;94408.53;5003154;28;20234;-72
2021/12/03 09:25:49;;;;;;;5.70;4.37;;;;;;;0.95;100.00;94404.31;5029766;28;20190;-73
2021/12/03 09:28:14;;;;;;;5.57;4.30;;;;;;;0.79;100.00;94401.50;5031656;28;20198;-72
2021/12/03 09:30:43;;;;;;;6.07;4.17;;;;;;;0.55;100.00;94409.91;5031774;28;20600;-72
2021/12/03 09:33:13;;;;;;;5.23;4.10;;;;;;;0.26;100.00;94412.22;5008432;28;20228;-73
2021/12/03 09:35:48;;;;;;;5.97;4.03;;;;;;;0.23;100.00;94398.81;5025516;28;20276;-72
2021/12/03 09:38:14;;;;;;;4.27;3.87;;;;;;;0.49;100.00;94412.31;5013939;28;20202;-72
2021/12/03 09:40:41;;;;;;;5.73;4.47;;;;;;;0.79;100.00;94406.09;5013737;28;20561;-73
2021/12/03 09:43:07;;;;;;;5.80;4.20;;;;;;;1.16;100.00;94408.59;5030072;28;20211;-72
2021/12/03 09:45:35;;;;;;;5.23;4.30;;;;;;;1.04;100.00;94409.94;5031055;28;20198;-73
2021/12/03 09:48:11;;;;;;;4.40;3.70;;;;;;;1.17;100.00;94413.56;5012006;28;20270;-72
2021/12/03 09:50:38;;;;;;;5.57;3.97;;;;;;;1.34;100.00;94422.50;5017872;28;20207;-72
2021/12/03 09:53:24;;;;;;;4.90;4.20;;;;;;;1.15;100.00;94413.22;5001811;28;20214;-73
2021/12/03 09:55:49;;;;;;;7.57;4.70;;;;;;;1.30;98.72;94413.00;5024504;28;20187;-73
2021/12/03 10:00:56;;;;;;;7.13;5.13;;;;;;;1.38;100.00;94409.78;5031463;28;20261;-72
2021/12/03 10:25:24;;;;;;;5.43;2.90;;;;;;;1.12;93.80;94389.84;5031400;28;20202;-73
2021/12/03 10:28:17;;;;;;;3.43;2.57;;;;;;;0.68;92.98;94376.69;5037956;28;20191;-72
2021/12/03 10:31:03;;;;;;;3.60;2.50;;;;;;;0.78;94.06;94373.09;5030599;28;20273;-71
2021/12/03 10:39:37;;;;;;;4.27;2.30;;;;;;;2.71;88.50;94384.84;5023217;28;20247;-71
2021/12/03 10:49:42;;;;;;;4.67;2.90;;;;;;;2.05;85.78;94360.09;4992894;28;20188;-72
2021/12/03 11:11:06;;;;;;;4.93;3.80;;;;;;;1.21;90.05;94360.50;5030519;28;20190;-71
2021/12/03 13:38:54;;;;;;;5.77;2.90;;;;;;;0.97;91.73;94313.28;5025364;28;20195;-72
2021/12/03 14:44:24;;;;;;;5.50;3.23;;;;;;;0.46;97.10;94286.09;5027541;28;20199;-73
2021/12/03 14:55:55;;;;;;;3.47;2.73;;;;;;;0.29;100.00;94290.56;4979320;28;20688;-73
2021/12/03 14:58:32;;;;;;;4.70;3.00;;;;;;;0.34;99.81;94297.41;5013431;28;20191;-72
2021/12/03 15:01:02;;;;;;;4.27;2.87;;;;;;;0.39;99.01;94292.31;4996971;28;20219;-72
2021/12/03 15:14:45;;;;;;;3.63;2.53;;;;;;;0.39;100.00;94283.53;5032892;28;20222;-72
2021/12/03 15:22:28;;;;;;;4.63;3.00;;;;;;;0.00;99.21;94284.84;5034234;28;20747;-71
2021/12/03 15:25:05;;;;;;;6.00;3.17;;;;;;;-0.23;100.00;94274.06;5000586;28;20210;-71
2021/12/03 15:27:54;;;;;;;7.43;2.67;;;;;;;-0.07;100.00;94282.25;5016593;28;20202;-72
2021/12/03 15:35:53;;;;;;;7.47;3.83;;;;;;;-0.06;100.00;94272.28;5012441;28;20293;-71
2021/12/03 15:38:28;;;;;;;4.90;3.90;;;;;;;-0.51;100.00;94284.38;5029313;28;20199;-72
2021/12/03 16:10:18;;;;;;;5.43;3.80;;;;;;;-1.29;100.00;94271.78;5049123;28;20269;-72
2021/12/03 16:16:20;;;;;;;13.60;9.07;;;;;;;-1.23;100.00;94282.84;4993758;28;20665;-71
2021/12/03 16:51:25;;;;;;;7.60;4.07;;;;;;;-2.04;100.00;94246.03;5032956;28;20215;-72
2021/12/03 16:53:54;;;;;;;8.57;6.00;;;;;;;-2.01;100.00;94252.50;5022535;28;20194;-72
2021/12/03 16:56:28;;;;;;;13.67;7.43;;;;;;;-2.16;100.00;94257.19;5032642;28;20184;-72
2021/12/03 16:58:56;;;;;;;8.50;5.50;;;;;;;-2.15;100.00;94253.34;5032377;28;20199;-71
2021/12/03 17:01:42;;;;;;;7.83;5.27;;;;;;;-2.37;100.00;94267.22;5032320;28;20564;-71
2021/12/03 17:04:33;;;;;;;10.97;7.23;;;;;;;-2.30;100.00;94246.56;5004212;28;20249;-71
2021/12/03 17:09:56;;;;;;;9.87;4.47;;;;;;;-2.37;100.00;94256.53;5038363;28;20205;-71
2021/12/03 17:53:21;;;;;;;9.17;6.07;;;;;;;-2.35;100.00;94204.19;5028782;28;20289;-72
2021/12/03 18:01:05;;;;;;;9.80;5.87;;;;;;;-2.37;100.00;94200.38;5022100;28;20196;-72
2021/12/03 18:03:44;;;;;;;8.77;6.13;;;;;;;-2.12;100.00;94209.75;5029191;28;20714;-73
2021/12/03 18:16:45;;;;;;;13.63;8.83;;;;;;;-2.39;100.00;94200.03;5033565;28;20199;-71
2021/12/03 18:54:32;;;;;;;13.80;9.40;;;;;;;-2.02;100.00;94162.72;5019858;28;20219;-72
2021/12/03 18:57:07;;;;;;;18.93;11.13;;;;;;;-2.41;100.00;94148.88;5026614;28;20249;-73
2021/12/03 18:59:37;;;;;;;13.17;8.90;;;;;;;-2.61;100.00;94152.06;5017200;28;20210;-72
2021/12/03 19:02:06;;;;;;;16.97;11.37;;;;;;;-2.41;100.00;94138.19;5022119;28;20211;-73
2021/12/03 19:07:45;;;;;;;14.50;10.90;;;;;;;-2.24;100.00;94146.06;5024227;28;20212;-73
2021/12/03 19:10:17;;;;;;;20.93;14.20;;;;;;;-2.44;100.00;94120.25;5003605;28;20192;-73
2021/12/03 19:12:45;;;;;;;16.30;12.40;;;;;;;-2.27;100.00;94135.41;5010285;28;20230;-74
2021/12/03 19:15:12;;;;;;;12.03;8.60;;;;;;;-2.17;100.00;94129.97;5027504;28;20180;-73
2021/12/03 19:17:41;;;;;;;12.13;7.43;;;;;;;-2.30;100.00;94131.59;5003830;28;20214;-73